createdAt,value
2018-04-02T00:01:48.243Z,10.90
2018-04-02T00:04:20.857Z,11.50
2018-04-02T00:06:49.937Z,12.00
2018-04-02T00:09:17.533Z,12.60
2018-04-02T00:11:45.084Z,12.40
2018-04-02T00:14:12.637Z,13.17
2018-04-02T00:16:40.200Z,13.80
2018-04-02T00:19:07.756Z,13.40
2018-04-02T00:21:36.100Z,12.87
2018-04-02T00:24:03.668Z,12.77
2018-04-02T00:26:31.817Z,13.00
2018-04-02T00:28:59.389Z,13.50
2018-04-02T00:31:26.970Z,13.27
2018-04-02T00:33:54.524Z,15.60
2018-04-02T00:36:22.857Z,13.53
2018-04-02T00:38:50.454Z,14.63
2018-04-02T00:41:18.878Z,13.60
2018-04-02T00:43:47.231Z,14.53
2018-04-02T00:46:14.818Z,15.00
2018-04-02T00:48:42.373Z,15.30
2018-04-02T00:51:09.938Z,14.00
2018-04-02T00:53:37.486Z,14.93
2018-04-02T00:56:05.108Z,14.33
2018-04-02T00:58:33.421Z,16.97
2018-04-02T01:01:00.989Z,15.03
2018-04-02T01:03:29.338Z,15.47
2018-04-02T01:05:56.974Z,15.27
2018-04-02T01:08:24.575Z,16.03
2018-04-02T01:10:52.153Z,15.57
2018-04-02T01:13:19.721Z,15.53
2018-04-02T01:15:47.292Z,16.10
2018-04-02T01:18:14.841Z,15.63
2018-04-02T01:20:42.416Z,15.13
2018-04-02T01:23:09.984Z,15.80
2018-04-02T01:25:37.548Z,15.40
2018-04-02T01:28:05.096Z,16.63
2018-04-02T01:30:33.439Z,15.73
2018-04-02T01:33:00.989Z,14.80
2018-04-02T01:35:28.569Z,16.23
2018-04-02T01:37:56.126Z,16.63
2018-04-02T01:40:23.680Z,15.27
2018-04-02T01:42:52.063Z,15.57
2018-04-02T01:45:19.633Z,16.20
2018-04-02T01:47:47.966Z,18.27
2018-04-02T01:50:15.511Z,17.20
2018-04-02T01:52:43.810Z,15.20
2018-04-02T01:55:11.428Z,16.00
2018-04-02T01:57:39.005Z,16.20
2018-04-02T02:00:07.044Z,16.37
2018-04-02T02:02:34.629Z,15.10
2018-04-02T02:05:02.224Z,15.93
2018-04-02T02:07:29.805Z,14.53
2018-04-02T02:09:57.362Z,15.13
2018-04-02T02:12:24.934Z,15.57
2018-04-02T02:14:52.488Z,14.47
2018-04-02T02:17:20.065Z,15.43
2018-04-02T02:19:47.622Z,14.83
2018-04-02T02:22:15.208Z,14.80
2018-04-02T02:24:42.761Z,15.83
2018-04-02T02:27:10.333Z,15.70
2018-04-02T02:29:37.881Z,14.67
2018-04-02T02:32:05.457Z,15.57
2018-04-02T02:34:33.009Z,13.47
2018-04-02T02:37:01.353Z,13.97
2018-04-02T02:39:28.910Z,14.63
2018-04-02T02:41:56.492Z,16.60
2018-04-02T02:44:24.049Z,14.67
2018-04-02T02:46:51.618Z,14.03
2018-04-02T02:49:19.179Z,16.50
2018-04-02T02:51:46.758Z,15.50
2018-04-02T02:54:14.318Z,16.93
2018-04-02T02:56:41.888Z,17.77
2018-04-02T02:59:09.436Z,14.93
2018-04-02T03:01:37.010Z,16.03
2018-04-02T03:04:04.559Z,17.60
2018-04-02T03:06:32.129Z,16.77
2018-04-02T03:08:59.677Z,16.23
2018-04-02T03:11:27.260Z,17.87
2018-04-02T03:13:54.819Z,18.70
2018-04-02T03:16:22.387Z,16.63
2018-04-02T03:18:49.932Z,18.83
2018-04-02T03:21:18.241Z,19.33
2018-04-02T03:23:45.811Z,20.57
2018-04-02T03:26:13.369Z,22.70
2018-04-02T03:28:40.932Z,20.93
2018-04-02T03:31:09.253Z,23.37
2018-04-02T03:33:36.821Z,21.47
2018-04-02T03:36:04.378Z,24.53
2018-04-02T03:38:31.949Z,23.33
2018-04-02T03:40:59.506Z,25.70
2018-04-02T03:43:27.840Z,23.73
2018-04-02T03:45:55.392Z,23.03
2018-04-02T03:48:22.961Z,27.33
2018-04-02T03:50:50.521Z,28.00
2018-04-02T03:53:18.096Z,27.67
2018-04-02T03:55:45.641Z,26.33
2018-04-02T03:58:13.209Z,28.03
2018-04-02T04:00:40.757Z,28.50
2018-04-02T04:03:08.348Z,29.30
2018-04-02T04:05:35.900Z,27.57
2018-04-02T04:08:03.481Z,28.40
2018-04-02T04:10:31.113Z,26.67
2018-04-02T04:12:58.709Z,27.60
2018-04-02T04:15:26.256Z,26.47
2018-04-02T04:17:54.616Z,26.27
2018-04-02T04:20:22.929Z,28.37
2018-04-02T04:22:50.500Z,29.70
2018-04-02T04:25:18.056Z,27.20
2018-04-02T04:27:46.393Z,28.17
2018-04-02T04:30:13.943Z,29.00
2018-04-02T04:32:41.512Z,25.20
2018-04-02T04:35:09.060Z,27.13
2018-04-02T04:37:37.388Z,25.20
2018-04-02T04:40:04.936Z,27.93
2018-04-02T04:42:32.516Z,23.70
2018-04-02T04:45:00.061Z,26.83
2018-04-02T04:47:28.397Z,27.53
2018-04-02T04:49:55.951Z,27.20
2018-04-02T04:52:23.520Z,28.20
2018-04-02T04:54:51.068Z,24.80
2018-04-02T04:57:19.404Z,24.17
2018-04-02T04:59:46.952Z,26.37
2018-04-02T05:02:14.509Z,26.03
2018-04-02T05:04:42.081Z,24.40
2018-04-02T05:07:09.629Z,27.97
2018-04-02T05:09:38.088Z,25.60
2018-04-02T05:12:05.644Z,25.50
2018-04-02T05:14:33.217Z,25.43
2018-04-02T05:17:00.765Z,26.30
2018-04-02T05:19:28.356Z,25.77
2018-04-02T05:21:55.906Z,26.10
2018-04-02T05:24:23.485Z,24.13
2018-04-02T05:26:51.045Z,27.00
2018-04-02T05:29:18.616Z,25.60
2018-04-02T05:31:46.938Z,29.40
2018-04-02T05:34:14.509Z,28.77
2018-04-02T05:36:42.062Z,27.77
2018-04-02T05:39:09.693Z,28.40
2018-04-02T05:41:37.258Z,27.97
2018-04-02T05:44:04.839Z,29.37
2018-04-02T05:46:32.384Z,28.47
2018-04-02T05:48:59.962Z,29.00
2018-04-02T05:51:27.516Z,28.27
2018-04-02T05:53:55.094Z,26.83
2018-04-02T05:56:22.664Z,28.90
2018-04-02T05:58:50.233Z,30.27
2018-04-02T06:01:17.786Z,28.57
2018-04-02T06:03:45.348Z,28.63
2018-04-02T06:06:12.908Z,26.87
2018-04-02T06:08:40.472Z,26.03
2018-04-02T06:11:08.792Z,27.10
2018-04-02T06:13:36.367Z,27.73
2018-04-02T06:16:03.917Z,26.73
2018-04-02T06:18:31.489Z,27.20
2018-04-02T06:20:59.043Z,27.50
2018-04-02T06:23:27.381Z,29.37
2018-04-02T06:25:54.932Z,29.93
2018-04-02T06:28:22.498Z,30.10
2018-04-02T06:30:50.049Z,29.50
2018-04-02T06:33:18.425Z,30.67
2018-04-02T06:35:45.996Z,31.10
2018-04-02T06:38:13.541Z,32.00
2018-04-02T06:40:41.108Z,32.03
2018-04-02T06:43:08.662Z,30.57
2018-04-02T06:45:36.237Z,34.10
2018-04-02T06:48:03.785Z,31.77
2018-04-02T06:50:31.350Z,31.73
2018-04-02T06:52:59.708Z,35.10
2018-04-02T06:55:27.253Z,33.70
2018-04-02T06:57:54.802Z,33.57
2018-04-02T07:00:22.434Z,32.50
2018-04-02T07:02:49.953Z,31.37
2018-04-02T07:05:17.524Z,31.27
2018-04-02T07:07:45.079Z,31.93
2018-04-02T07:10:12.661Z,32.30
2018-04-02T07:12:40.211Z,31.07
2018-04-02T07:15:07.807Z,33.43
2018-04-02T07:17:35.383Z,31.50
2018-04-02T07:20:02.949Z,32.17
2018-04-02T07:22:30.495Z,34.13
2018-04-02T07:24:58.833Z,30.20
2018-04-02T07:27:26.384Z,30.93
2018-04-02T07:29:53.947Z,31.57
2018-04-02T07:32:21.506Z,32.10
2018-04-02T07:34:49.106Z,32.33
2018-04-02T07:37:16.666Z,31.40
2018-04-02T07:39:44.233Z,28.83
2018-04-02T07:42:11.788Z,30.33
2018-04-02T07:44:40.123Z,30.53
2018-04-02T07:47:07.674Z,29.27
2018-04-02T07:49:35.258Z,28.57
2018-04-02T07:52:02.815Z,27.47
2018-04-02T07:54:30.380Z,28.27
2018-04-02T07:56:57.924Z,26.30
2018-04-02T07:59:25.509Z,26.50
2018-04-02T08:01:53.820Z,26.70
2018-04-02T08:04:21.438Z,26.37
2018-04-02T08:06:48.972Z,25.00
2018-04-02T08:09:16.524Z,23.97
2018-04-02T08:11:44.098Z,24.47
2018-04-02T08:14:11.885Z,24.30
2018-04-02T08:16:39.458Z,25.10
2018-04-02T08:19:07.020Z,23.40
2018-04-02T08:21:34.580Z,22.20
2018-04-02T08:24:02.887Z,25.00
2018-04-02T08:26:30.766Z,22.30
2018-04-02T08:28:58.316Z,22.33
2018-04-02T08:31:26.654Z,20.97
2018-04-02T08:33:54.242Z,20.57
2018-04-02T08:36:21.808Z,19.73
2018-04-02T08:38:49.453Z,22.10
2018-04-02T08:41:16.948Z,22.40
2018-04-02T08:43:44.505Z,21.07
2018-04-02T08:46:12.772Z,20.23
2018-04-02T08:48:40.324Z,19.03
2018-04-02T08:51:08.688Z,18.10
2018-04-02T08:53:36.240Z,18.63
2018-04-02T08:56:03.809Z,18.20
2018-04-02T08:58:31.372Z,18.80
2018-04-02T09:00:58.945Z,18.27
2018-04-02T09:03:26.495Z,18.27
2018-04-02T09:05:54.056Z,15.90
2018-04-02T09:08:21.605Z,15.70
2018-04-02T09:10:49.939Z,19.77
2018-04-02T09:13:17.555Z,19.80
2018-04-02T09:15:45.082Z,17.70
2018-04-02T09:18:13.421Z,17.33
2018-04-02T09:20:41.022Z,16.20
2018-04-02T09:23:08.577Z,17.37
2018-04-02T09:25:36.914Z,15.90
2018-04-02T09:28:04.469Z,17.73
2018-04-02T09:30:32.042Z,17.47
2018-04-02T09:32:59.607Z,16.00
2018-04-02T09:35:27.152Z,17.27
2018-04-02T09:37:54.727Z,14.90
2018-04-02T09:40:23.051Z,16.60
2018-04-02T09:42:50.642Z,16.80
2018-04-02T09:45:18.201Z,16.17
2018-04-02T09:47:45.798Z,14.63
2018-04-02T09:50:13.344Z,16.17
2018-04-02T09:52:40.924Z,16.43
2018-04-02T09:55:08.483Z,15.70
2018-04-02T09:57:36.105Z,15.37
2018-04-02T10:00:04.421Z,14.40
2018-04-02T10:02:36.825Z,14.87
2018-04-02T10:05:06.488Z,14.50
2018-04-02T10:07:34.634Z,14.50
2018-04-02T10:10:02.248Z,15.30
2018-04-02T10:12:30.615Z,13.87
2018-04-02T10:14:58.164Z,13.53
2018-04-02T10:17:25.737Z,13.50
2018-04-02T10:19:54.093Z,12.53
2018-04-02T10:22:22.432Z,13.73
2018-04-02T10:24:49.992Z,12.77
2018-04-02T10:27:17.557Z,13.77
2018-04-02T10:29:45.886Z,13.23
2018-04-02T10:32:13.465Z,12.57
2018-04-02T10:34:41.030Z,13.50
2018-04-02T10:37:08.636Z,11.93
2018-04-02T10:39:37.000Z,12.20
2018-04-02T10:42:04.557Z,12.03
2018-04-02T10:44:32.140Z,12.43
2018-04-02T10:46:59.682Z,13.03
2018-04-02T10:49:27.248Z,13.07
2018-04-02T10:51:54.801Z,13.03
2018-04-02T10:54:22.368Z,13.40
2018-04-02T10:56:49.976Z,12.77
2018-04-02T10:59:17.547Z,12.97
2018-04-02T11:01:45.102Z,12.10
2018-04-02T11:04:12.682Z,13.80
2018-04-02T11:06:40.247Z,11.80
2018-04-02T11:09:07.812Z,12.07
2018-04-02T11:11:35.367Z,12.20
2018-04-02T11:14:02.972Z,10.30
2018-04-02T11:16:31.201Z,11.17
2018-04-02T11:18:58.749Z,12.03
2018-04-02T11:21:26.325Z,11.67
2018-04-02T11:23:53.867Z,9.90
2018-04-02T11:26:21.432Z,10.00
2018-04-02T11:28:48.991Z,11.07
2018-04-02T11:31:17.328Z,10.30
2018-04-02T11:33:44.873Z,10.63
2018-04-02T11:36:12.438Z,10.57
2018-04-02T11:38:40.162Z,10.97
2018-04-02T11:41:08.610Z,10.80
2018-04-02T11:43:36.205Z,9.43
2018-04-02T11:46:03.777Z,9.10
2018-04-02T11:48:31.350Z,9.20
2018-04-02T11:50:58.924Z,8.33
2018-04-02T11:53:26.488Z,8.03
2018-04-02T11:55:54.054Z,8.00
2018-04-02T11:58:22.031Z,8.37
2018-04-02T12:00:50.606Z,9.10
2018-04-02T12:03:18.178Z,8.73
2018-04-02T12:05:45.732Z,9.00
2018-04-02T12:08:14.066Z,7.37
2018-04-02T12:10:41.640Z,8.43
2018-04-02T12:13:09.222Z,8.83
2018-04-02T12:15:36.792Z,9.23
2018-04-02T12:18:04.382Z,8.73
2018-04-02T12:20:31.933Z,7.70
2018-04-02T12:22:59.613Z,9.10
2018-04-02T12:25:28.093Z,7.03
2018-04-02T12:27:55.674Z,7.23
2018-04-02T12:30:23.237Z,7.87
2018-04-02T12:32:50.809Z,7.20
2018-04-02T12:35:19.262Z,7.83
2018-04-02T12:37:46.934Z,7.80
2018-04-02T12:40:16.023Z,7.03
2018-04-02T12:42:43.689Z,7.13
2018-04-02T12:45:11.239Z,7.53
2018-04-02T12:47:38.962Z,8.20
2018-04-02T12:50:07.294Z,7.37
2018-04-02T12:52:37.313Z,7.30
2018-04-02T12:55:04.876Z,6.37
2018-04-02T12:57:32.446Z,6.13
2018-04-02T12:59:59.993Z,5.30
2018-04-02T13:02:28.322Z,6.40
2018-04-02T13:04:55.878Z,6.83
2018-04-02T13:07:23.442Z,5.40
2018-04-02T13:09:50.994Z,5.77
2018-04-02T13:12:19.421Z,5.60
2018-04-02T13:14:46.976Z,6.13
2018-04-02T13:17:14.530Z,5.00
2018-04-02T13:19:42.110Z,5.80
2018-04-02T13:22:10.614Z,5.70
2018-04-02T13:24:38.292Z,6.37
2018-04-02T13:27:11.228Z,6.00
2018-04-02T13:29:43.965Z,6.10
2018-04-02T13:32:11.529Z,5.40
2018-04-02T13:34:39.090Z,5.63
2018-04-02T13:37:06.677Z,4.70
2018-04-02T13:39:35.700Z,5.57
2018-04-02T13:42:04.024Z,5.10
2018-04-02T13:44:31.616Z,5.00
2018-04-02T13:46:59.162Z,5.20
2018-04-02T13:49:26.725Z,5.00
2018-04-02T13:51:54.258Z,5.30
2018-04-02T13:54:21.845Z,4.07
2018-04-02T13:56:49.410Z,4.20
2018-04-02T13:59:17.769Z,4.33
2018-04-02T14:01:50.074Z,5.37
2018-04-02T14:04:17.937Z,4.17
2018-04-02T14:06:45.739Z,5.00
2018-04-02T14:09:13.304Z,4.50
2018-04-02T14:11:42.375Z,4.57
2018-04-02T14:14:09.964Z,4.67
2018-04-02T14:16:37.533Z,4.27
2018-04-02T14:19:05.096Z,4.00
2018-04-02T14:21:32.649Z,3.93
2018-04-02T14:24:02.805Z,5.60
2018-04-02T14:26:30.351Z,3.80
2018-04-02T14:28:57.924Z,4.10
2018-04-02T14:31:26.433Z,4.40
2018-04-02T14:33:54.031Z,3.70
2018-04-02T14:36:21.598Z,4.80
2018-04-02T14:38:58.144Z,4.20
2018-04-02T14:41:32.258Z,3.90
2018-04-02T14:44:11.318Z,4.27
2018-04-02T14:46:44.850Z,3.50
2018-04-02T14:49:17.710Z,3.90
2018-04-02T14:51:45.315Z,3.70
2018-04-02T14:54:12.904Z,3.87
2018-04-02T14:56:40.462Z,3.87
2018-04-02T14:59:08.008Z,4.13
2018-04-02T15:01:37.636Z,4.57
2018-04-02T15:04:10.936Z,4.30
2018-04-02T15:06:39.964Z,3.80
2018-04-02T15:09:12.478Z,3.90
2018-04-02T15:11:41.641Z,2.70
2018-04-02T15:14:11.784Z,3.77
2018-04-02T15:16:39.737Z,3.20
2018-04-02T15:19:09.939Z,2.80
2018-04-02T15:21:38.589Z,2.90
2018-04-02T15:24:08.726Z,3.23
2018-04-02T15:26:42.349Z,2.97
2018-04-02T15:29:11.233Z,3.20
2018-04-02T15:31:38.797Z,3.77
2018-04-02T15:34:06.345Z,3.40
2018-04-02T15:36:34.609Z,3.17
2018-04-02T15:39:02.150Z,3.53
2018-04-02T15:41:31.808Z,2.73
2018-04-02T15:44:06.078Z,3.40
2018-04-02T15:46:35.864Z,3.73
2018-04-02T15:49:06.113Z,3.47
2018-04-02T15:51:42.804Z,3.30
2018-04-02T15:54:13.564Z,3.20
2018-04-02T15:56:41.180Z,2.80
2018-04-02T15:59:08.735Z,3.10
2018-04-02T16:01:36.308Z,3.40
2018-04-02T16:04:04.641Z,3.27
2018-04-02T16:06:32.991Z,3.57
2018-04-02T16:09:00.541Z,3.20
2018-04-02T16:11:29.038Z,3.07
2018-04-02T16:13:56.581Z,2.90
2018-04-02T16:16:24.154Z,3.60
2018-04-02T16:18:52.488Z,3.13
2018-04-02T16:21:20.127Z,3.40
2018-04-02T16:23:50.602Z,3.60
2018-04-02T16:26:18.215Z,3.60
2018-04-02T16:28:45.867Z,3.00
2018-04-02T16:31:13.474Z,3.83
2018-04-02T16:33:41.017Z,2.90
2018-04-02T16:36:08.562Z,3.30
2018-04-02T16:38:36.122Z,3.37
2018-04-02T16:41:04.938Z,3.00
2018-04-02T16:43:36.289Z,3.30
2018-04-02T16:46:04.057Z,3.20
2018-04-02T16:48:31.667Z,3.33
2018-04-02T16:50:59.214Z,2.97
2018-04-02T16:53:26.786Z,3.10
2018-04-02T16:55:54.386Z,3.13
2018-04-02T16:58:21.944Z,2.87
2018-04-02T17:00:49.554Z,2.73
2018-04-02T17:03:17.984Z,3.00
2018-04-02T17:05:45.570Z,2.87
2018-04-02T17:08:13.317Z,3.17
2018-04-02T17:10:41.643Z,3.00
2018-04-02T17:13:09.283Z,3.67
2018-04-02T17:15:38.565Z,3.10
2018-04-02T17:18:07.000Z,2.97
2018-04-02T17:20:34.600Z,3.20
2018-04-02T17:23:03.726Z,2.57
2018-04-02T17:25:31.270Z,2.93
2018-04-02T17:27:58.895Z,4.20
2018-04-02T17:30:26.446Z,2.70
2018-04-02T17:32:54.778Z,3.07
2018-04-02T17:35:22.764Z,2.93
2018-04-02T17:37:50.332Z,3.30
2018-04-02T17:40:17.894Z,4.73
2018-04-02T17:42:45.454Z,3.77
2018-04-02T17:45:13.002Z,3.70
2018-04-02T17:47:40.909Z,3.20
2018-04-02T17:50:08.481Z,3.10
2018-04-02T17:52:36.016Z,2.53
2018-04-02T17:55:03.605Z,2.63
2018-04-02T17:57:32.928Z,2.87
2018-04-02T18:00:00.556Z,4.23
2018-04-02T18:02:32.474Z,2.73
2018-04-02T18:05:00.801Z,3.70
2018-04-02T18:07:28.353Z,2.73
2018-04-02T18:09:56.715Z,3.00
2018-04-02T18:12:25.031Z,2.90
2018-04-02T18:14:52.645Z,3.10
2018-04-02T18:17:22.899Z,2.83
2018-04-02T18:19:50.729Z,2.77
2018-04-02T18:22:19.030Z,3.00
2018-04-02T18:24:46.618Z,3.13
2018-04-02T18:27:14.173Z,4.10
2018-04-02T18:29:41.764Z,3.43
2018-04-02T18:32:09.324Z,2.73
2018-04-02T18:34:36.896Z,3.60
2018-04-02T18:37:07.158Z,2.80
2018-04-02T18:39:34.728Z,3.40
2018-04-02T18:42:02.297Z,2.73
2018-04-02T18:44:29.866Z,3.93
2018-04-02T18:46:57.476Z,3.53
2018-04-02T18:49:25.809Z,3.50
2018-04-02T18:51:53.371Z,3.80
2018-04-02T18:54:20.949Z,2.83
2018-04-02T18:56:48.511Z,3.80
2018-04-02T18:59:16.086Z,4.33
2018-04-02T19:01:43.633Z,4.30
2018-04-02T19:04:12.068Z,5.00
2018-04-02T19:06:39.613Z,4.60
2018-04-02T19:09:07.242Z,4.97
2018-04-02T19:11:35.574Z,4.40
2018-04-02T19:14:03.162Z,4.03
2018-04-02T19:16:31.034Z,4.63
2018-04-02T19:18:58.769Z,4.17
2018-04-02T19:21:27.100Z,4.33
2018-04-02T19:23:54.650Z,4.67
2018-04-02T19:26:22.214Z,4.00
2018-04-02T19:28:49.784Z,3.67
2018-04-02T19:31:18.121Z,4.53
2018-04-02T19:33:45.681Z,4.70
2018-04-02T19:36:13.269Z,6.33
2018-04-02T19:38:40.924Z,4.53
2018-04-02T19:41:08.505Z,5.90
2018-04-02T19:43:36.823Z,5.20
2018-04-02T19:46:04.408Z,4.23
2018-04-02T19:48:32.079Z,4.50
2018-04-02T19:50:59.641Z,4.70
2018-04-02T19:53:27.184Z,4.90
2018-04-02T19:55:54.748Z,4.70
2018-04-02T19:58:22.345Z,5.20
2018-04-02T20:00:49.918Z,4.60
2018-04-02T20:03:17.460Z,4.40
2018-04-02T20:05:45.049Z,4.53
2018-04-02T20:08:12.589Z,5.00
2018-04-02T20:10:40.924Z,5.10
2018-04-02T20:13:08.520Z,4.80
2018-04-02T20:15:36.154Z,5.00
2018-04-02T20:18:03.704Z,6.20
2018-04-02T20:20:32.229Z,4.60
2018-04-02T20:22:59.877Z,5.67
2018-04-02T20:25:27.431Z,5.70
2018-04-02T20:27:55.011Z,5.03
2018-04-02T20:30:22.552Z,4.57
2018-04-02T20:32:50.892Z,4.37
2018-04-02T20:35:18.453Z,5.10
2018-04-02T20:37:46.026Z,4.83
2018-04-02T20:40:13.573Z,4.30
2018-04-02T20:42:41.141Z,4.23
2018-04-02T20:45:09.448Z,4.93
2018-04-02T20:47:37.037Z,5.10
2018-04-02T20:50:04.587Z,4.50
2018-04-02T20:52:32.161Z,5.47
2018-04-02T20:54:59.708Z,5.17
2018-04-02T20:57:27.265Z,5.00
2018-04-02T20:59:54.812Z,5.97
2018-04-02T21:02:22.374Z,4.73
2018-04-02T21:04:49.929Z,5.50
2018-04-02T21:07:17.501Z,6.70
2018-04-02T21:09:45.057Z,6.17
2018-04-02T21:12:12.633Z,5.47
2018-04-02T21:14:40.173Z,5.57
2018-04-02T21:17:08.499Z,6.40
2018-04-02T21:19:36.624Z,5.97
2018-04-02T21:22:04.202Z,6.13
2018-04-02T21:24:31.777Z,6.83
2018-04-02T21:26:59.353Z,6.00
2018-04-02T21:29:26.900Z,6.50
2018-04-02T21:31:54.483Z,6.83
2018-04-02T21:34:22.029Z,6.13
2018-04-02T21:36:49.576Z,6.13
2018-04-02T21:39:17.144Z,6.90
2018-04-02T21:41:45.443Z,6.60
2018-04-02T21:44:13.017Z,7.37
2018-04-02T21:46:40.557Z,6.90
2018-04-02T21:49:08.892Z,7.70
2018-04-02T21:51:36.449Z,7.00
2018-04-02T21:54:04.027Z,7.00
2018-04-02T21:56:31.574Z,7.53
2018-04-02T21:58:59.138Z,6.90
2018-04-02T22:01:27.449Z,7.73
2018-04-02T22:03:55.021Z,7.77
2018-04-02T22:06:34.357Z,8.60
2018-04-02T22:09:01.974Z,9.30
2018-04-02T22:11:29.493Z,8.87
2018-04-02T22:13:57.828Z,8.37
2018-04-02T22:16:25.970Z,8.93
2018-04-02T22:18:53.542Z,8.33
2018-04-02T22:21:21.858Z,9.53
2018-04-02T22:23:49.437Z,9.47
2018-04-02T22:26:16.985Z,9.13
2018-04-02T22:28:45.366Z,9.50
2018-04-02T22:31:13.690Z,8.97
2018-04-02T22:33:41.385Z,9.73
2018-04-02T22:36:09.036Z,10.67
2018-04-02T22:38:36.604Z,9.93
2018-04-02T22:41:04.156Z,11.10
2018-04-02T22:43:32.493Z,10.57
2018-04-02T22:46:00.049Z,10.63
2018-04-02T22:48:27.617Z,11.00
2018-04-02T22:50:55.170Z,11.77
2018-04-02T22:53:22.745Z,12.03
2018-04-02T22:55:50.297Z,11.50
2018-04-02T22:58:18.674Z,11.37
2018-04-02T23:00:46.248Z,11.80
2018-04-02T23:03:13.795Z,12.00
2018-04-02T23:05:41.780Z,11.47
2018-04-02T23:08:09.338Z,12.23
2018-04-02T23:10:36.921Z,13.23
2018-04-02T23:13:04.478Z,11.87
2018-04-02T23:15:32.040Z,13.13
2018-04-02T23:17:59.588Z,13.73
2018-04-02T23:20:27.153Z,14.13
2018-04-02T23:22:54.705Z,13.13
2018-04-02T23:25:23.060Z,15.03
2018-04-02T23:27:50.608Z,14.60
2018-04-02T23:30:18.181Z,15.97
2018-04-02T23:32:45.740Z,14.60
2018-04-02T23:35:13.318Z,16.10
2018-04-02T23:37:40.861Z,16.00
2018-04-02T23:40:09.201Z,15.20
2018-04-02T23:42:36.753Z,15.23
2018-04-02T23:45:04.338Z,16.80
2018-04-02T23:47:31.890Z,17.20
2018-04-02T23:49:59.456Z,16.27
2018-04-02T23:52:27.040Z,16.10
2018-04-02T23:54:54.604Z,16.23
2018-04-02T23:57:22.191Z,16.83
2018-04-02T23:59:49.761Z,16.70
